sensor_id;sensor_type;location;lat;lon;timestamp;pressure;altitude;pressure_sealevel;temperature;humidity
40285;BME280;25997;50.214;19.354;2023-09-12T00:00:10;97601.84;;;19.04;56.37
40285;BME280;25997;50.214;19.354;2023-09-12T00:03:13;97598.72;;;18.74;56.58
40285;BME280;25997;50.214;19.354;2023-09-12T00:06:17;97599.88;;;18.51;57.10
40285;BME280;25997;50.214;19.354;2023-09-12T00:09:19;97594.81;;;18.30;57.21
40285;BME280;25997;50.214;19.354;2023-09-12T00:12:23;97603.03;;;18.09;57.84
40285;BME280;25997;50.214;19.354;2023-09-12T00:15:28;97592.56;;;17.97;57.86
40285;BME280;25997;50.214;19.354;2023-09-12T00:18:31;97586.41;;;17.87;59.34
40285;BME280;25997;50.214;19.354;2023-09-12T00:21:35;97592.53;;;17.99;59.73
40285;BME280;25997;50.214;19.354;2023-09-12T00:24:37;97586.44;;;17.86;60.06
40285;BME280;25997;50.214;19.354;2023-09-12T00:27:41;97584.53;;;18.00;60.49
40285;BME280;25997;50.214;19.354;2023-09-12T00:30:44;97581.63;;;18.21;60.96
40285;BME280;25997;50.214;19.354;2023-09-12T00:33:47;97583.97;;;18.47;60.63
40285;BME280;25997;50.214;19.354;2023-09-12T00:36:49;97590.84;;;18.63;60.60
40285;BME280;25997;50.214;19.354;2023-09-12T00:39:51;97585.41;;;18.75;60.56
40285;BME280;25997;50.214;19.354;2023-09-12T00:42:55;97590.59;;;18.86;60.18
40285;BME280;25997;50.214;19.354;2023-09-12T00:45:58;97593.16;;;18.92;60.12
40285;BME280;25997;50.214;19.354;2023-09-12T00:49:01;97589.53;;;18.97;60.21
40285;BME280;25997;50.214;19.354;2023-09-12T00:52:05;97593.22;;;18.89;60.04
40285;BME280;25997;50.214;19.354;2023-09-12T00:55:08;97591.56;;;18.79;60.58
40285;BME280;25997;50.214;19.354;2023-09-12T00:58:13;97582.75;;;18.74;60.93
40285;BME280;25997;50.214;19.354;2023-09-12T01:01:16;97588.16;;;18.68;59.51
40285;BME280;25997;50.214;19.354;2023-09-12T01:04:20;97584.84;;;18.47;59.00
40285;BME280;25997;50.214;19.354;2023-09-12T01:07:22;97583.31;;;18.30;58.61
40285;BME280;25997;50.214;19.354;2023-09-12T01:10:25;97581.72;;;18.14;59.87
40285;BME280;25997;50.214;19.354;2023-09-12T01:13:29;97591.47;;;18.15;61.25
40285;BME280;25997;50.214;19.354;2023-09-12T01:16:31;97587.78;;;18.26;61.57
40285;BME280;25997;50.214;19.354;2023-09-12T01:19:33;97593.00;;;18.35;61.32
40285;BME280;25997;50.214;19.354;2023-09-12T01:23:00;97587.69;;;18.34;61.29
40285;BME280;25997;50.214;19.354;2023-09-12T01:26:29;97583.44;;;18.19;60.32
40285;BME280;25997;50.214;19.354;2023-09-12T01:29:35;97575.66;;;18.04;59.95
40285;BME280;25997;50.214;19.354;2023-09-12T01:32:39;97584.53;;;18.02;61.42
40285;BME280;25997;50.214;19.354;2023-09-12T01:35:42;97587.06;;;18.12;62.10
40285;BME280;25997;50.214;19.354;2023-09-12T01:38:49;97585.19;;;18.22;62.10
40285;BME280;25997;50.214;19.354;2023-09-12T01:41:52;97586.81;;;18.32;61.80
40285;BME280;25997;50.214;19.354;2023-09-12T01:44:59;97593.09;;;18.25;59.86
40285;BME280;25997;50.214;19.354;2023-09-12T01:48:04;97590.81;;;17.90;59.06
40285;BME280;25997;50.214;19.354;2023-09-12T01:51:09;97597.28;;;17.60;59.28
40285;BME280;25997;50.214;19.354;2023-09-12T01:54:14;97598.41;;;17.35;59.64
40285;BME280;25997;50.214;19.354;2023-09-12T01:57:18;97594.06;;;17.19;59.95
40285;BME280;25997;50.214;19.354;2023-09-12T02:00:24;97591.53;;;17.01;60.28
40285;BME280;25997;50.214;19.354;2023-09-12T02:03:27;97585.38;;;16.96;60.23
40285;BME280;25997;50.214;19.354;2023-09-12T02:06:32;97585.47;;;16.84;60.25
40285;BME280;25997;50.214;19.354;2023-09-12T02:09:35;97576.69;;;16.73;60.81
40285;BME280;25997;50.214;19.354;2023-09-12T02:12:39;97582.91;;;16.67;61.11
40285;BME280;25997;50.214;19.354;2023-09-12T02:15:44;97588.22;;;16.66;61.13
40285;BME280;25997;50.214;19.354;2023-09-12T02:18:46;97587.38;;;16.59;61.50
40285;BME280;25997;50.214;19.354;2023-09-12T02:21:49;97574.97;;;16.66;61.29
40285;BME280;25997;50.214;19.354;2023-09-12T02:24:52;97575.84;;;16.65;61.75
40285;BME280;25997;50.214;19.354;2023-09-12T02:27:55;97582.06;;;16.62;62.82
40285;BME280;25997;50.214;19.354;2023-09-12T02:30:58;97580.28;;;16.66;62.34
40285;BME280;25997;50.214;19.354;2023-09-12T02:34:01;97584.72;;;16.62;61.64
40285;BME280;25997;50.214;19.354;2023-09-12T02:37:04;97584.75;;;16.58;61.61
40285;BME280;25997;50.214;19.354;2023-09-12T02:40:07;97584.75;;;16.55;61.98
40285;BME280;25997;50.214;19.354;2023-09-12T02:43:12;97583.00;;;16.55;63.05
40285;BME280;25997;50.214;19.354;2023-09-12T02:46:16;97586.47;;;16.66;64.38
40285;BME280;25997;50.214;19.354;2023-09-12T02:49:18;97584.53;;;16.89;64.88
40285;BME280;25997;50.214;19.354;2023-09-12T02:52:21;97593.22;;;17.14;64.85
40285;BME280;25997;50.214;19.354;2023-09-12T02:55:24;97589.59;;;17.30;64.34
40285;BME280;25997;50.214;19.354;2023-09-12T02:58:27;97601.00;;;17.44;64.20
40285;BME280;25997;50.214;19.354;2023-09-12T03:01:31;97593.91;;;17.46;64.65
40285;BME280;25997;50.214;19.354;2023-09-12T03:04:35;97589.41;;;17.53;64.61
40285;BME280;25997;50.214;19.354;2023-09-12T03:07:37;97585.84;;;17.55;64.72
40285;BME280;25997;50.214;19.354;2023-09-12T03:10:40;97595.53;;;17.61;64.66
40285;BME280;25997;50.214;19.354;2023-09-12T03:13:42;97593.72;;;17.63;64.29
40285;BME280;25997;50.214;19.354;2023-09-12T03:16:46;97593.81;;;17.54;64.09
40285;BME280;25997;50.214;19.354;2023-09-12T03:19:49;97587.63;;;17.53;64.66
40285;BME280;25997;50.214;19.354;2023-09-12T03:22:51;97606.19;;;17.55;65.08
40285;BME280;25997;50.214;19.354;2023-09-12T03:25:54;97601.81;;;17.51;65.18
40285;BME280;25997;50.214;19.354;2023-09-12T03:28:57;97601.81;;;17.49;65.06
40285;BME280;25997;50.214;19.354;2023-09-12T03:32:01;97595.66;;;17.49;65.20
40285;BME280;25997;50.214;19.354;2023-09-12T03:35:04;97600.00;;;17.54;65.12
40285;BME280;25997;50.214;19.354;2023-09-12T03:38:06;97597.31;;;17.56;65.09
40285;BME280;25997;50.214;19.354;2023-09-12T03:41:11;97597.31;;;17.59;65.26
40285;BME280;25997;50.214;19.354;2023-09-12T03:44:14;97599.06;;;17.61;65.50
40285;BME280;25997;50.214;19.354;2023-09-12T03:47:18;97592.81;;;17.65;65.20
40285;BME280;25997;50.214;19.354;2023-09-12T03:50:21;97599.91;;;17.65;65.00
40285;BME280;25997;50.214;19.354;2023-09-12T03:53:23;97597.28;;;17.63;64.88
40285;BME280;25997;50.214;19.354;2023-09-12T03:56:27;97592.03;;;17.57;64.74
40285;BME280;25997;50.214;19.354;2023-09-12T03:59:30;97591.19;;;17.51;65.72
40285;BME280;25997;50.214;19.354;2023-09-12T04:02:34;97591.25;;;17.46;64.41
40285;BME280;25997;50.214;19.354;2023-09-12T04:05:36;97594.88;;;17.32;64.88
40285;BME280;25997;50.214;19.354;2023-09-12T04:08:39;97601.16;;;17.22;65.91
40285;BME280;25997;50.214;19.354;2023-09-12T04:11:42;97592.34;;;17.19;65.66
40285;BME280;25997;50.214;19.354;2023-09-12T04:14:45;97597.56;;;17.27;65.44
40285;BME280;25997;50.214;19.354;2023-09-12T04:17:49;97599.38;;;17.24;64.73
40285;BME280;25997;50.214;19.354;2023-09-12T04:20:52;97602.94;;;17.13;63.43
40285;BME280;25997;50.214;19.354;2023-09-12T04:23:57;97601.31;;;16.91;63.90
40285;BME280;25997;50.214;19.354;2023-09-12T04:26:59;97604.03;;;16.81;64.93
40285;BME280;25997;50.214;19.354;2023-09-12T04:30:02;97602.34;;;16.71;65.64
40285;BME280;25997;50.214;19.354;2023-09-12T04:33:09;97605.00;;;16.71;65.18
40285;BME280;25997;50.214;19.354;2023-09-12T04:36:11;97597.97;;;16.64;64.53
40285;BME280;25997;50.214;19.354;2023-09-12T04:39:14;97605.03;;;16.60;65.18
40285;BME280;25997;50.214;19.354;2023-09-12T04:42:16;97607.72;;;16.57;64.56
40285;BME280;25997;50.214;19.354;2023-09-12T04:45:20;97608.63;;;16.50;65.66
40285;BME280;25997;50.214;19.354;2023-09-12T04:48:24;97602.38;;;16.66;66.60
40285;BME280;25997;50.214;19.354;2023-09-12T04:51:27;97604.00;;;16.88;66.53
40285;BME280;25997;50.214;19.354;2023-09-12T04:54:29;97613.63;;;17.06;65.77
40285;BME280;25997;50.214;19.354;2023-09-12T04:57:32;97616.25;;;17.04;64.85
40285;BME280;25997;50.214;19.354;2023-09-12T05:00:34;97610.97;;;17.06;64.92
40285;BME280;25997;50.214;19.354;2023-09-12T05:03:41;97621.63;;;16.98;64.99
40285;BME280;25997;50.214;19.354;2023-09-12T05:06:43;97621.66;;;16.92;66.12
40285;BME280;25997;50.214;19.354;2023-09-12T05:09:45;97618.97;;;17.01;66.63
40285;BME280;25997;50.214;19.354;2023-09-12T05:12:48;97629.47;;;17.21;66.99
40285;BME280;25997;50.214;19.354;2023-09-12T05:15:51;97619.66;;;17.32;66.03
40285;BME280;25997;50.214;19.354;2023-09-12T05:18:55;97628.47;;;17.37;66.05
40285;BME280;25997;50.214;19.354;2023-09-12T05:21:58;97623.09;;;17.43;66.19
40285;BME280;25997;50.214;19.354;2023-09-12T05:25:00;97627.50;;;17.47;66.34
40285;BME280;25997;50.214;19.354;2023-09-12T05:28:03;97635.44;;;17.53;66.21
40285;BME280;25997;50.214;19.354;2023-09-12T05:31:07;97632.69;;;17.61;66.10
40285;BME280;25997;50.214;19.354;2023-09-12T05:34:13;97634.41;;;17.68;65.58
40285;BME280;25997;50.214;19.354;2023-09-12T05:37:15;97629.91;;;17.77;65.58
40285;BME280;25997;50.214;19.354;2023-09-12T05:40:18;97632.44;;;17.88;65.25
40285;BME280;25997;50.214;19.354;2023-09-12T05:43:21;97632.34;;;18.03;65.49
40285;BME280;25997;50.214;19.354;2023-09-12T05:46:24;97633.06;;;18.19;65.69
40285;BME280;25997;50.214;19.354;2023-09-12T05:49:28;97632.81;;;18.40;65.27
40285;BME280;25997;50.214;19.354;2023-09-12T05:52:32;97632.59;;;18.56;65.15
40285;BME280;25997;50.214;19.354;2023-09-12T05:55:35;97632.50;;;18.69;65.21
40285;BME280;25997;50.214;19.354;2023-09-12T05:58:38;97631.47;;;18.79;65.11
40285;BME280;25997;50.214;19.354;2023-09-12T06:01:43;97633.97;;;18.91;64.98
40285;BME280;25997;50.214;19.354;2023-09-12T06:04:48;97629.38;;;19.00;64.71
40285;BME280;25997;50.214;19.354;2023-09-12T06:07:51;97632.75;;;19.14;64.23
40285;BME280;25997;50.214;19.354;2023-09-12T06:10:53;97634.47;;;19.17;64.22
40285;BME280;25997;50.214;19.354;2023-09-12T06:13:56;97641.47;;;19.24;64.09
40285;BME280;25997;50.214;19.354;2023-09-12T06:16:58;97643.09;;;19.37;63.54
40285;BME280;25997;50.214;19.354;2023-09-12T06:20:02;97646.47;;;19.48;63.23
40285;BME280;25997;50.214;19.354;2023-09-12T06:23:07;97641.00;;;19.57;62.80
40285;BME280;25997;50.214;19.354;2023-09-12T06:26:09;97644.44;;;19.62;63.01
40285;BME280;25997;50.214;19.354;2023-09-12T06:29:13;97640.81;;;19.68;63.15
40285;BME280;25997;50.214;19.354;2023-09-12T06:32:15;97645.03;;;19.81;62.68
40285;BME280;25997;50.214;19.354;2023-09-12T06:35:19;97648.34;;;19.95;62.80
40285;BME280;25997;50.214;19.354;2023-09-12T06:38:22;97643.56;;;20.15;62.36
40285;BME280;25997;50.214;19.354;2023-09-12T06:41:26;97647.59;;;20.36;61.78
40285;BME280;25997;50.214;19.354;2023-09-12T06:44:29;97650.09;;;20.45;61.17
40285;BME280;25997;50.214;19.354;2023-09-12T06:47:31;97648.94;;;20.58;61.10
40285;BME280;25997;50.214;19.354;2023-09-12T06:50:35;97649.53;;;20.75;60.90
40285;BME280;25997;50.214;19.354;2023-09-12T06:53:38;97651.91;;;20.89;60.81
40285;BME280;25997;50.214;19.354;2023-09-12T06:56:41;97653.34;;;21.03;60.70
40285;BME280;25997;50.214;19.354;2023-09-12T06:59:44;97655.66;;;21.20;60.95
40285;BME280;25997;50.214;19.354;2023-09-12T07:02:49;97657.13;;;21.33;60.49
40285;BME280;25997;50.214;19.354;2023-09-12T07:05:52;97656.97;;;21.42;61.10
40285;BME280;25997;50.214;19.354;2023-09-12T07:08:55;97662.84;;;21.56;60.28
40285;BME280;25997;50.214;19.354;2023-09-12T07:11:57;97661.59;;;21.71;60.62
40285;BME280;25997;50.214;19.354;2023-09-12T07:15:00;97663.13;;;21.81;60.01
40285;BME280;25997;50.214;19.354;2023-09-12T07:18:03;97665.63;;;21.88;60.10
40285;BME280;25997;50.214;19.354;2023-09-12T07:21:08;97661.00;;;21.95;60.06
40285;BME280;25997;50.214;19.354;2023-09-12T07:24:12;97664.22;;;22.09;60.42
40285;BME280;25997;50.214;19.354;2023-09-12T07:27:14;97665.31;;;22.34;59.98
40285;BME280;25997;50.214;19.354;2023-09-12T07:30:17;97670.38;;;22.45;58.77
40285;BME280;25997;50.214;19.354;2023-09-12T07:33:20;97670.13;;;22.54;58.76
40285;BME280;25997;50.214;19.354;2023-09-12T07:36:24;97662.72;;;22.65;58.91
40285;BME280;25997;50.214;19.354;2023-09-12T07:39:27;97668.03;;;22.66;58.63
40285;BME280;25997;50.214;19.354;2023-09-12T07:42:29;97667.66;;;22.80;58.78
40285;BME280;25997;50.214;19.354;2023-09-12T07:45:31;97670.78;;;22.94;58.42
40285;BME280;25997;50.214;19.354;2023-09-12T07:48:37;97666.19;;;22.99;57.99
40285;BME280;25997;50.214;19.354;2023-09-12T07:51:42;97669.19;;;23.19;57.65
40285;BME280;25997;50.214;19.354;2023-09-12T07:54:44;97667.88;;;23.32;57.42
40285;BME280;25997;50.214;19.354;2023-09-12T07:57:46;97664.63;;;23.50;56.85
40285;BME280;25997;50.214;19.354;2023-09-12T08:00:49;97658.75;;;23.66;55.95
40285;BME280;25997;50.214;19.354;2023-09-12T08:03:51;97662.88;;;23.76;55.09
40285;BME280;25997;50.214;19.354;2023-09-12T08:06:55;97668.94;;;23.84;55.40
40285;BME280;25997;50.214;19.354;2023-09-12T08:09:58;97664.81;;;24.00;54.41
40285;BME280;25997;50.214;19.354;2023-09-12T08:13:00;97672.59;;;24.07;53.88
40285;BME280;25997;50.214;19.354;2023-09-12T08:16:03;97671.59;;;24.62;52.25
40285;BME280;25997;50.214;19.354;2023-09-12T08:19:05;97666.03;;;24.91;51.46
40285;BME280;25997;50.214;19.354;2023-09-12T08:22:10;97659.88;;;24.88;51.14
40285;BME280;25997;50.214;19.354;2023-09-12T08:25:13;97662.53;;;24.65;51.66
40285;BME280;25997;50.214;19.354;2023-09-12T08:28:15;97660.97;;;24.82;51.96
40285;BME280;25997;50.214;19.354;2023-09-12T08:31:18;97660.56;;;24.94;51.51
40285;BME280;25997;50.214;19.354;2023-09-12T08:34:20;97655.56;;;25.09;50.18
40285;BME280;25997;50.214;19.354;2023-09-12T08:37:24;97672.06;;;25.21;50.91
40285;BME280;25997;50.214;19.354;2023-09-12T08:40:26;97674.16;;;25.36;50.60
40285;BME280;25997;50.214;19.354;2023-09-12T08:43:30;97676.13;;;25.31;50.22
40285;BME280;25997;50.214;19.354;2023-09-12T08:46:33;97672.88;;;25.23;50.61
40285;BME280;25997;50.214;19.354;2023-09-12T08:49:36;97661.50;;;25.40;49.96
40285;BME280;25997;50.214;19.354;2023-09-12T08:52:41;97669.78;;;25.57;49.42
40285;BME280;25997;50.214;19.354;2023-09-12T08:55:44;97674.25;;;25.80;49.00
40285;BME280;25997;50.214;19.354;2023-09-12T08:58:47;97665.88;;;26.09;48.14
40285;BME280;25997;50.214;19.354;2023-09-12T09:01:51;97663.34;;;26.26;48.38
40285;BME280;25997;50.214;19.354;2023-09-12T09:04:55;97662.44;;;26.25;48.09
40285;BME280;25997;50.214;19.354;2023-09-12T09:08:00;97659.47;;;26.31;47.64
40285;BME280;25997;50.214;19.354;2023-09-12T09:11:04;97662.53;;;26.44;47.41
40285;BME280;25997;50.214;19.354;2023-09-12T09:14:07;97663.88;;;26.54;47.09
40285;BME280;25997;50.214;19.354;2023-09-12T09:17:10;97658.59;;;26.73;46.20
40285;BME280;25997;50.214;19.354;2023-09-12T09:20:22;97660.44;;;27.30;44.51
40285;BME280;25997;50.214;19.354;2023-09-12T09:23:26;97664.19;;;27.46;43.89
40285;BME280;25997;50.214;19.354;2023-09-12T09:26:41;97658.66;;;27.49;42.65
40285;BME280;25997;50.214;19.354;2023-09-12T09:29:46;97653.75;;;27.75;42.79
40285;BME280;25997;50.214;19.354;2023-09-12T09:32:54;97650.22;;;27.92;41.50
40285;BME280;25997;50.214;19.354;2023-09-12T09:36:02;97654.44;;;27.98;40.79
40285;BME280;25997;50.214;19.354;2023-09-12T09:39:06;97646.97;;;28.03;39.34
40285;BME280;25997;50.214;19.354;2023-09-12T09:42:10;97652.66;;;27.42;42.25
40285;BME280;25997;50.214;19.354;2023-09-12T09:45:13;97656.31;;;27.41;42.81
40285;BME280;25997;50.214;19.354;2023-09-12T09:48:19;97651.19;;;27.54;42.13
40285;BME280;25997;50.214;19.354;2023-09-12T09:51:22;97657.75;;;27.30;42.55
40285;BME280;25997;50.214;19.354;2023-09-12T09:54:26;97653.44;;;27.26;43.22
40285;BME280;25997;50.214;19.354;2023-09-12T09:57:29;97656.81;;;27.31;42.48
40285;BME280;25997;50.214;19.354;2023-09-12T10:00:33;97646.56;;;27.56;42.47
40285;BME280;25997;50.214;19.354;2023-09-12T10:03:36;97648.13;;;28.16;42.31
40285;BME280;25997;50.214;19.354;2023-09-12T10:06:42;97646.34;;;28.68;41.07
40285;BME280;25997;50.214;19.354;2023-09-12T10:09:47;97653.50;;;29.01;41.55
40285;BME280;25997;50.214;19.354;2023-09-12T10:12:51;97653.50;;;29.34;40.61
40285;BME280;25997;50.214;19.354;2023-09-12T10:15:55;97655.22;;;29.99;39.83
40285;BME280;25997;50.214;19.354;2023-09-12T10:19:06;97646.03;;;30.17;36.35
40285;BME280;25997;50.214;19.354;2023-09-12T10:22:18;97645.16;;;30.01;37.45
40285;BME280;25997;50.214;19.354;2023-09-12T10:25:24;97651.09;;;30.08;38.52
40285;BME280;25997;50.214;19.354;2023-09-12T10:28:28;97646.41;;;29.80;38.96
40285;BME280;25997;50.214;19.354;2023-09-12T10:31:32;97646.59;;;29.77;38.39
40285;BME280;25997;50.214;19.354;2023-09-12T10:34:37;97640.88;;;30.13;37.45
40285;BME280;25997;50.214;19.354;2023-09-12T10:37:46;97645.03;;;29.73;37.68
40285;BME280;25997;50.214;19.354;2023-09-12T10:40:53;97647.00;;;30.16;37.49
40285;BME280;25997;50.214;19.354;2023-09-12T10:43:58;97645.13;;;30.32;36.94
40285;BME280;25997;50.214;19.354;2023-09-12T10:47:01;97645.22;;;30.31;36.96
40285;BME280;25997;50.214;19.354;2023-09-12T10:50:07;97640.66;;;31.05;36.13
40285;BME280;25997;50.214;19.354;2023-09-12T10:53:11;97649.69;;;31.19;35.56
40285;BME280;25997;50.214;19.354;2023-09-12T10:56:19;97643.84;;;30.97;34.47
40285;BME280;25997;50.214;19.354;2023-09-12T10:59:21;97648.81;;;31.33;31.94
40285;BME280;25997;50.214;19.354;2023-09-12T11:02:30;97643.38;;;31.88;33.47
40285;BME280;25997;50.214;19.354;2023-09-12T11:05:37;97649.13;;;31.97;33.17
40285;BME280;25997;50.214;19.354;2023-09-12T11:08:40;97656.84;;;32.30;33.89
40285;BME280;25997;50.214;19.354;2023-09-12T11:11:45;97650.22;;;32.34;31.44
40285;BME280;25997;50.214;19.354;2023-09-12T11:15:06;97653.78;;;32.49;30.33
40285;BME280;25997;50.214;19.354;2023-09-12T11:18:09;97649.69;;;32.81;31.75
40285;BME280;25997;50.214;19.354;2023-09-12T11:21:12;97651.38;;;32.44;30.97
40285;BME280;25997;50.214;19.354;2023-09-12T11:24:15;97645.72;;;32.21;31.39
40285;BME280;25997;50.214;19.354;2023-09-12T11:27:20;97647.72;;;32.31;31.58
40285;BME280;25997;50.214;19.354;2023-09-12T11:30:24;97648.19;;;32.11;30.66
40285;BME280;25997;50.214;19.354;2023-09-12T11:33:27;97638.31;;;32.23;30.96
40285;BME280;25997;50.214;19.354;2023-09-12T11:36:30;97645.59;;;32.88;30.44
40285;BME280;25997;50.214;19.354;2023-09-12T11:39:34;97642.09;;;33.24;30.62
40285;BME280;25997;50.214;19.354;2023-09-12T11:42:40;97638.75;;;32.95;28.67
40285;BME280;25997;50.214;19.354;2023-09-12T11:45:44;97634.19;;;32.56;30.35
40285;BME280;25997;50.214;19.354;2023-09-12T11:48:47;97635.97;;;32.31;30.48
40285;BME280;25997;50.214;19.354;2023-09-12T11:51:52;97623.34;;;32.82;30.21
40285;BME280;25997;50.214;19.354;2023-09-12T11:54:54;97627.31;;;33.15;29.72
40285;BME280;25997;50.214;19.354;2023-09-12T11:57:58;97623.34;;;32.82;29.65
40285;BME280;25997;50.214;19.354;2023-09-12T12:01:01;97629.00;;;32.66;29.82
40285;BME280;25997;50.214;19.354;2023-09-12T12:04:04;97619.13;;;32.90;30.01
40285;BME280;25997;50.214;19.354;2023-09-12T12:07:10;97619.59;;;32.45;29.67
40285;BME280;25997;50.214;19.354;2023-09-12T12:10:13;97623.00;;;32.22;30.05
40285;BME280;25997;50.214;19.354;2023-09-12T12:13:18;97620.28;;;31.95;30.20
40285;BME280;25997;50.214;19.354;2023-09-12T12:16:20;97611.13;;;32.49;30.05
40285;BME280;25997;50.214;19.354;2023-09-12T12:19:22;97625.09;;;33.20;29.47
40285;BME280;25997;50.214;19.354;2023-09-12T12:22:25;97617.72;;;33.35;29.17
40285;BME280;25997;50.214;19.354;2023-09-12T12:25:31;97611.38;;;33.09;29.66
40285;BME280;25997;50.214;19.354;2023-09-12T12:28:36;97607.50;;;32.88;29.57
40285;BME280;25997;50.214;19.354;2023-09-12T12:31:38;97602.63;;;32.54;29.36
40285;BME280;25997;50.214;19.354;2023-09-12T12:34:41;97602.97;;;32.49;29.18
40285;BME280;25997;50.214;19.354;2023-09-12T12:37:44;97609.53;;;32.20;28.92
40285;BME280;25997;50.214;19.354;2023-09-12T12:40:46;97606.44;;;32.12;29.07
40285;BME280;25997;50.214;19.354;2023-09-12T12:43:50;97603.81;;;31.98;28.91
40285;BME280;25997;50.214;19.354;2023-09-12T12:46:53;97606.31;;;31.87;28.93
40285;BME280;25997;50.214;19.354;2023-09-12T12:49:56;97604.41;;;32.16;28.66
40285;BME280;25997;50.214;19.354;2023-09-12T12:52:58;97605.09;;;32.05;29.22
40285;BME280;25997;50.214;19.354;2023-09-12T12:56:01;97602.13;;;32.49;29.64
40285;BME280;25997;50.214;19.354;2023-09-12T12:59:05;97605.47;;;33.40;28.51
40285;BME280;25997;50.214;19.354;2023-09-12T13:02:09;97611.19;;;33.74;28.17
40285;BME280;25997;50.214;19.354;2023-09-12T13:05:30;97607.00;;;34.17;27.62
40285;BME280;25997;50.214;19.354;2023-09-12T13:08:33;97601.81;;;34.25;27.20
40285;BME280;25997;50.214;19.354;2023-09-12T13:11:36;97602.81;;;33.77;28.13
40285;BME280;25997;50.214;19.354;2023-09-12T13:14:40;97593.19;;;33.84;27.91
40285;BME280;25997;50.214;19.354;2023-09-12T13:17:43;97599.72;;;34.05;27.45
40285;BME280;25997;50.214;19.354;2023-09-12T13:20:45;97604.69;;;33.64;27.96
40285;BME280;25997;50.214;19.354;2023-09-12T13:23:48;97598.53;;;33.49;27.94
40285;BME280;25997;50.214;19.354;2023-09-12T13:26:51;97602.13;;;33.37;28.10
40285;BME280;25997;50.214;19.354;2023-09-12T13:29:55;97601.13;;;34.10;27.62
40285;BME280;25997;50.214;19.354;2023-09-12T13:32:58;97604.09;;;34.31;28.19
40285;BME280;25997;50.214;19.354;2023-09-12T13:36:00;97595.00;;;34.54;27.77
40285;BME280;25997;50.214;19.354;2023-09-12T13:39:03;97599.47;;;34.55;27.77
40285;BME280;25997;50.214;19.354;2023-09-12T13:42:07;97604.44;;;35.07;26.59
40285;BME280;25997;50.214;19.354;2023-09-12T13:45:12;97596.41;;;34.60;26.87
40285;BME280;25997;50.214;19.354;2023-09-12T13:48:14;97595.47;;;34.94;26.14
40285;BME280;25997;50.214;19.354;2023-09-12T13:51:17;97598.38;;;35.26;26.19
40285;BME280;25997;50.214;19.354;2023-09-12T13:54:19;97594.34;;;34.40;26.27
40285;BME280;25997;50.214;19.354;2023-09-12T13:57:22;97598.28;;;33.52;26.86
40285;BME280;25997;50.214;19.354;2023-09-12T14:00:26;97593.63;;;32.78;27.13
40285;BME280;25997;50.214;19.354;2023-09-12T14:03:28;97582.63;;;32.42;27.82
40285;BME280;25997;50.214;19.354;2023-09-12T14:06:32;97581.91;;;32.91;27.64
40285;BME280;25997;50.214;19.354;2023-09-12T14:09:35;97579.19;;;33.65;27.11
40285;BME280;25997;50.214;19.354;2023-09-12T14:12:37;97590.16;;;33.99;26.32
40285;BME280;25997;50.214;19.354;2023-09-12T14:15:41;97587.47;;;34.34;26.14
40285;BME280;25997;50.214;19.354;2023-09-12T14:18:43;97595.34;;;34.84;26.63
40285;BME280;25997;50.214;19.354;2023-09-12T14:21:46;97591.94;;;34.24;25.98
40285;BME280;25997;50.214;19.354;2023-09-12T14:24:48;97582.75;;;33.65;27.03
40285;BME280;25997;50.214;19.354;2023-09-12T14:27:51;97591.09;;;33.51;26.93
40285;BME280;25997;50.214;19.354;2023-09-12T14:30:54;97590.03;;;34.01;26.37
40285;BME280;25997;50.214;19.354;2023-09-12T14:33:57;97600.34;;;34.56;26.04
40285;BME280;25997;50.214;19.354;2023-09-12T14:36:59;97596.38;;;35.28;25.98
40285;BME280;25997;50.214;19.354;2023-09-12T14:40:04;97603.84;;;35.15;25.06
40285;BME280;25997;50.214;19.354;2023-09-12T14:43:07;97601.50;;;34.64;25.41
40285;BME280;25997;50.214;19.354;2023-09-12T14:46:11;97604.59;;;34.36;26.25
40285;BME280;25997;50.214;19.354;2023-09-12T14:49:13;97604.47;;;34.14;26.32
40285;BME280;25997;50.214;19.354;2023-09-12T14:52:16;97604.50;;;33.90;26.32
40285;BME280;25997;50.214;19.354;2023-09-12T14:55:18;97592.91;;;33.99;26.92
40285;BME280;25997;50.214;19.354;2023-09-12T14:58:20;97599.88;;;34.38;26.25
40285;BME280;25997;50.214;19.354;2023-09-12T15:01:24;97599.34;;;34.57;26.20
40285;BME280;25997;50.214;19.354;2023-09-12T15:04:27;97598.28;;;34.12;25.86
40285;BME280;25997;50.214;19.354;2023-09-12T15:07:30;97587.97;;;33.81;26.32
40285;BME280;25997;50.214;19.354;2023-09-12T15:10:33;97581.22;;;33.74;26.65
40285;BME280;25997;50.214;19.354;2023-09-12T15:13:35;97592.66;;;33.30;26.92
40285;BME280;25997;50.214;19.354;2023-09-12T15:16:39;97587.84;;;33.21;26.82
40285;BME280;25997;50.214;19.354;2023-09-12T15:19:41;97589.50;;;32.98;27.30
40285;BME280;25997;50.214;19.354;2023-09-12T15:22:44;97585.59;;;33.15;27.00
40285;BME280;25997;50.214;19.354;2023-09-12T15:25:46;97592.16;;;33.61;26.62
40285;BME280;25997;50.214;19.354;2023-09-12T15:28:48;97587.44;;;33.99;26.32
40285;BME280;25997;50.214;19.354;2023-09-12T15:31:53;97593.91;;;34.22;26.36
40285;BME280;25997;50.214;19.354;2023-09-12T15:34:56;97589.66;;;34.18;26.33
40285;BME280;25997;50.214;19.354;2023-09-12T15:37:58;97587.44;;;34.23;26.79
40285;BME280;25997;50.214;19.354;2023-09-12T15:41:01;97587.41;;;34.47;25.95
40285;BME280;25997;50.214;19.354;2023-09-12T15:44:04;97587.44;;;34.58;26.27
40285;BME280;25997;50.214;19.354;2023-09-12T15:47:09;97579.69;;;34.64;26.05
40285;BME280;25997;50.214;19.354;2023-09-12T15:50:11;97584.63;;;34.59;25.99
40285;BME280;25997;50.214;19.354;2023-09-12T15:53:13;97581.44;;;34.42;25.99
40285;BME280;25997;50.214;19.354;2023-09-12T15:56:16;97584.38;;;34.04;26.68
40285;BME280;25997;50.214;19.354;2023-09-12T15:59:18;97583.97;;;33.61;26.55